createdAt,value
2022-09-12T00:01:20.066Z,99.99
2022-09-12T00:03:48.627Z,99.99
2022-09-12T00:06:28.497Z,99.99
2022-09-12T00:08:59.051Z,99.99
2022-09-12T00:11:27.681Z,99.99
2022-09-12T00:14:00.516Z,99.99
2022-09-12T00:16:30.647Z,99.99
2022-09-12T00:18:58.705Z,99.99
2022-09-12T00:21:27.072Z,99.99
2022-09-12T00:23:55.237Z,99.99
2022-09-12T00:26:23.068Z,99.99
2022-09-12T00:28:51.553Z,99.99
2022-09-12T00:31:24.003Z,99.99
2022-09-12T00:33:52.914Z,99.99
2022-09-12T00:36:22.753Z,99.99
2022-09-12T00:38:51.240Z,99.99
2022-09-12T00:41:21.855Z,99.99
2022-09-12T00:43:52.063Z,99.99
2022-09-12T00:46:28.144Z,99.99
2022-09-12T00:49:29.017Z,99.99
2022-09-12T00:52:00.581Z,99.99
2022-09-12T00:54:34.075Z,99.99
2022-09-12T00:57:06.235Z,99.99
2022-09-12T00:59:49.114Z,99.99
2022-09-12T01:02:17.776Z,99.99
2022-09-12T01:04:47.758Z,99.99
2022-09-12T01:07:16.335Z,99.99
2022-09-12T01:09:46.030Z,99.99
2022-09-12T01:12:15.793Z,99.99
2022-09-12T01:14:43.742Z,99.99
2022-09-12T01:17:14.878Z,99.99
2022-09-12T01:20:09.225Z,99.99
2022-09-12T01:22:42.838Z,99.99
2022-09-12T01:25:33.942Z,99.99
2022-09-12T01:28:23.410Z,99.99
2022-09-12T01:31:00.863Z,99.99
2022-09-12T01:33:56.112Z,99.99
2022-09-12T01:36:48.187Z,99.99
2022-09-12T01:39:21.153Z,99.99
2022-09-12T01:41:54.469Z,99.99
2022-09-12T01:44:36.648Z,99.99
2022-09-12T01:47:26.979Z,99.99
2022-09-12T01:50:02.972Z,99.99
2022-09-12T01:52:42.807Z,99.99
2022-09-12T01:55:32.061Z,99.99
2022-09-12T01:58:25.070Z,99.99
2022-09-12T02:01:02.879Z,99.99
2022-09-12T02:03:46.447Z,99.99
2022-09-12T02:06:29.646Z,99.99
2022-09-12T02:09:12.758Z,99.99
2022-09-12T02:11:44.634Z,99.99
2022-09-12T02:14:24.853Z,99.99
2022-09-12T02:17:07.619Z,99.99
2022-09-12T02:19:45.628Z,99.99
2022-09-12T02:22:18.345Z,99.99
2022-09-12T02:24:51.056Z,99.99
2022-09-12T02:27:26.252Z,99.99
2022-09-12T02:29:54.392Z,99.99
2022-09-12T02:32:53.288Z,99.99
2022-09-12T02:35:33.858Z,99.99
2022-09-12T02:38:13.592Z,99.99
2022-09-12T02:40:41.941Z,99.99
2022-09-12T02:43:09.982Z,99.99
2022-09-12T02:45:38.508Z,99.99
2022-09-12T02:48:18.236Z,99.99
2022-09-12T02:50:46.690Z,99.99
2022-09-12T02:53:15.335Z,99.99
2022-09-12T02:55:44.050Z,99.99
2022-09-12T02:58:17.426Z,99.99
2022-09-12T03:00:59.493Z,99.99
2022-09-12T03:03:58.347Z,99.99
2022-09-12T03:06:33.654Z,99.99
2022-09-12T03:09:27.197Z,99.99
2022-09-12T03:11:57.663Z,99.99
2022-09-12T03:14:43.451Z,99.99
2022-09-12T03:17:57.103Z,99.99
2022-09-12T03:20:38.932Z,99.99
2022-09-12T03:23:24.852Z,99.99
2022-09-12T03:25:59.253Z,99.99
2022-09-12T03:28:27.675Z,99.99
2022-09-12T03:30:56.466Z,99.99
2022-09-12T03:33:25.999Z,99.99
2022-09-12T03:35:54.849Z,99.99
2022-09-12T03:38:22.601Z,99.99
2022-09-12T03:40:54.527Z,99.99
2022-09-12T03:43:22.705Z,99.99
2022-09-12T03:45:53.611Z,99.99
2022-09-12T03:48:21.905Z,99.99
2022-09-12T03:50:49.627Z,99.99
2022-09-12T03:53:20.299Z,99.99
2022-09-12T03:55:48.075Z,99.99
2022-09-12T03:58:18.884Z,99.99
2022-09-12T04:00:47.096Z,99.99
2022-09-12T04:03:15.127Z,99.99
2022-09-12T04:05:42.922Z,99.99
2022-09-12T04:08:10.641Z,99.99
2022-09-12T04:10:38.629Z,99.99
2022-09-12T04:13:06.648Z,99.99
2022-09-12T04:15:34.906Z,99.99
2022-09-12T04:18:05.952Z,99.99
2022-09-12T04:20:34.042Z,99.99
2022-09-12T04:23:01.780Z,99.99
2022-09-12T04:25:31.390Z,99.99
2022-09-12T04:27:59.197Z,99.99
2022-09-12T04:30:27.188Z,99.99
2022-09-12T04:32:54.979Z,99.99
2022-09-12T04:35:23.087Z,99.99
2022-09-12T04:37:50.795Z,99.99
2022-09-12T04:40:19.376Z,99.99
2022-09-12T04:42:47.508Z,99.99
2022-09-12T04:45:16.666Z,99.99
2022-09-12T04:47:45.915Z,99.99
2022-09-12T04:50:14.824Z,99.99
2022-09-12T04:52:42.711Z,99.99
2022-09-12T04:55:10.918Z,99.99
2022-09-12T04:57:38.667Z,99.99
2022-09-12T05:00:07.533Z,99.99
2022-09-12T05:02:35.685Z,99.99
2022-09-12T05:05:03.726Z,99.99
2022-09-12T05:07:32.339Z,99.99
2022-09-12T05:10:00.447Z,99.99
2022-09-12T05:12:28.963Z,99.99
2022-09-12T05:14:56.961Z,99.99
2022-09-12T05:17:24.871Z,99.99
2022-09-12T05:19:52.746Z,99.99
2022-09-12T05:22:20.704Z,99.99
2022-09-12T05:24:50.726Z,99.99
2022-09-12T05:27:20.085Z,99.99
2022-09-12T05:29:48.073Z,99.99
2022-09-12T05:32:16.158Z,99.99
2022-09-12T05:34:44.068Z,99.99
2022-09-12T05:37:12.745Z,99.99
2022-09-12T05:39:41.494Z,99.99
2022-09-12T05:42:10.695Z,99.99
2022-09-12T05:44:39.246Z,99.99
2022-09-12T05:47:07.525Z,99.99
2022-09-12T05:49:36.214Z,99.99
2022-09-12T05:52:04.342Z,99.99
2022-09-12T05:54:34.271Z,99.99
2022-09-12T05:57:02.029Z,99.99
2022-09-12T05:59:30.062Z,99.99
2022-09-12T06:01:58.262Z,99.92
2022-09-12T06:04:26.537Z,99.80
2022-09-12T06:06:54.430Z,99.60
2022-09-12T06:09:22.804Z,99.53
2022-09-12T06:11:51.807Z,99.60
2022-09-12T06:14:20.476Z,99.49
2022-09-12T06:16:49.959Z,99.60
2022-09-12T06:19:20.290Z,99.62
2022-09-12T06:21:49.568Z,99.36
2022-09-12T06:24:18.669Z,99.73
2022-09-12T06:26:50.319Z,99.48
2022-09-12T06:29:19.317Z,99.45
2022-09-12T06:31:47.215Z,99.63
2022-09-12T06:34:16.496Z,99.90
2022-09-12T06:36:46.809Z,99.79
2022-09-12T06:39:17.477Z,99.30
2022-09-12T06:41:46.254Z,99.65
2022-09-12T06:44:17.740Z,99.35
2022-09-12T06:46:46.023Z,99.20
2022-09-12T06:49:14.318Z,99.12
2022-09-12T06:51:42.655Z,99.10
2022-09-12T06:54:13.980Z,98.82
2022-09-12T06:56:41.951Z,98.36
2022-09-12T06:59:10.012Z,97.92
2022-09-12T07:01:38.634Z,97.36
2022-09-12T07:04:09.046Z,96.71
2022-09-12T07:06:39.880Z,95.66
2022-09-12T07:09:11.534Z,95.22
2022-09-12T07:11:41.883Z,93.73
2022-09-12T07:14:12.977Z,92.85
2022-09-12T07:16:41.302Z,90.37
2022-09-12T07:19:10.799Z,89.45
2022-09-12T07:21:40.229Z,90.47
2022-09-12T07:24:10.677Z,90.94
2022-09-12T07:26:40.509Z,89.60
2022-09-12T07:29:35.444Z,88.64
2022-09-12T07:32:02.293Z,88.67
2022-09-12T07:34:30.212Z,88.55
2022-09-12T07:36:58.737Z,88.54
2022-09-12T07:39:26.568Z,86.47
2022-09-12T07:41:54.916Z,84.77
2022-09-12T07:44:23.580Z,83.91
2022-09-12T07:46:52.326Z,81.95
2022-09-12T07:49:20.295Z,82.44
2022-09-12T07:51:48.220Z,83.66
2022-09-12T07:54:16.150Z,81.98
2022-09-12T07:56:44.135Z,79.95
2022-09-12T07:59:13.462Z,80.15
2022-09-12T08:01:41.621Z,82.62
2022-09-12T08:04:09.832Z,81.64
2022-09-12T08:06:40.571Z,80.17
2022-09-12T08:09:08.984Z,79.71
2022-09-12T08:11:37.870Z,79.27
2022-09-12T08:14:05.902Z,78.55
2022-09-12T08:16:35.514Z,78.57
2022-09-12T08:19:04.438Z,79.10
2022-09-12T08:21:33.410Z,79.37
2022-09-12T08:24:03.890Z,79.83
2022-09-12T08:26:32.831Z,79.50
2022-09-12T08:29:00.888Z,80.39
2022-09-12T08:31:29.194Z,80.97
2022-09-12T08:33:58.211Z,80.52
2022-09-12T08:36:30.159Z,80.51
2022-09-12T08:39:00.662Z,79.66
2022-09-12T08:42:03.507Z,78.95
2022-09-12T08:44:44.278Z,79.11
2022-09-12T08:47:25.486Z,78.01
2022-09-12T08:50:11.886Z,77.76
2022-09-12T08:53:17.492Z,78.04
2022-09-12T08:55:46.850Z,77.30
2022-09-12T08:58:21.506Z,75.67
2022-09-12T09:01:13.973Z,76.91
2022-09-12T09:04:09.111Z,75.61
2022-09-12T09:06:49.432Z,74.98
2022-09-12T09:09:36.602Z,76.25
2022-09-12T09:12:28.389Z,76.73
2022-09-12T09:15:22.042Z,75.89
2022-09-12T09:17:58.723Z,74.92
2022-09-12T09:20:41.287Z,75.21
2022-09-12T09:23:39.791Z,74.23
2022-09-12T09:26:15.211Z,74.37
2022-09-12T09:28:58.878Z,74.40
2022-09-12T09:31:31.133Z,74.68
2022-09-12T09:34:00.147Z,74.60
2022-09-12T09:36:51.447Z,74.56
2022-09-12T09:39:39.981Z,74.74
2022-09-12T09:42:23.419Z,72.99
2022-09-12T09:44:55.973Z,73.36
2022-09-12T09:47:23.979Z,72.94
2022-09-12T09:49:51.913Z,72.74
2022-09-12T09:52:28.605Z,72.14
2022-09-12T09:55:00.384Z,69.55
2022-09-12T09:57:44.626Z,70.38
2022-09-12T10:00:32.128Z,69.68
2022-09-12T10:03:03.164Z,69.34
2022-09-12T10:05:33.688Z,69.06
2022-09-12T10:08:03.233Z,68.15
2022-09-12T10:10:31.066Z,68.56
2022-09-12T10:13:16.673Z,67.67
2022-09-12T10:15:58.451Z,66.85
2022-09-12T10:18:42.280Z,67.27
2022-09-12T10:21:17.847Z,65.87
2022-09-12T10:23:47.544Z,66.61
2022-09-12T10:26:20.972Z,66.75
2022-09-12T10:28:55.108Z,63.99
2022-09-12T10:31:30.048Z,63.84
2022-09-12T10:34:01.337Z,63.84
2022-09-12T10:36:40.538Z,62.90
2022-09-12T10:39:18.757Z,62.52
2022-09-12T10:41:46.946Z,61.49
2022-09-12T10:44:19.278Z,62.61
2022-09-12T10:46:47.452Z,61.92
2022-09-12T10:49:23.572Z,59.91
2022-09-12T10:51:54.135Z,59.40
2022-09-12T10:54:27.370Z,60.76
2022-09-12T10:56:58.359Z,59.64
2022-09-12T10:59:58.862Z,60.15
2022-09-12T11:03:02.671Z,60.32
2022-09-12T11:05:52.204Z,60.66
2022-09-12T11:08:29.267Z,58.85
2022-09-12T11:11:37.520Z,59.79
2022-09-12T11:14:14.697Z,58.61
2022-09-12T11:17:15.945Z,59.46
2022-09-12T11:20:22.563Z,59.87
2022-09-12T11:23:09.075Z,59.16
2022-09-12T11:26:04.334Z,59.15
2022-09-12T11:28:50.444Z,58.07
2022-09-12T11:31:54.911Z,59.26
2022-09-12T11:34:44.140Z,58.03
2022-09-12T11:37:43.681Z,58.56
2022-09-12T11:40:55.677Z,59.68
2022-09-12T11:43:33.203Z,59.04
2022-09-12T11:46:18.135Z,58.68
2022-09-12T11:48:54.669Z,58.17
2022-09-12T11:51:35.656Z,58.45
2022-09-12T11:54:21.043Z,58.94
2022-09-12T11:56:59.646Z,56.97
2022-09-12T11:59:52.719Z,57.45
2022-09-12T12:02:29.570Z,57.20
2022-09-12T12:05:16.453Z,56.80
2022-09-12T12:07:56.647Z,57.19
2022-09-12T12:10:36.530Z,57.07
2022-09-12T12:13:17.993Z,57.60
2022-09-12T12:15:52.869Z,56.54
2022-09-12T12:18:30.984Z,56.32
2022-09-12T12:21:31.879Z,57.15
2022-09-12T12:24:26.173Z,55.75
2022-09-12T12:26:58.725Z,55.70
2022-09-12T12:29:35.120Z,56.64
2022-09-12T12:32:03.525Z,54.94
2022-09-12T12:34:31.504Z,55.14
2022-09-12T12:37:23.213Z,54.35
2022-09-12T12:40:01.007Z,55.04
2022-09-12T12:42:37.822Z,54.76
2022-09-12T12:45:20.505Z,54.91
2022-09-12T12:47:58.974Z,55.41
2022-09-12T12:50:31.539Z,55.66
2022-09-12T12:53:19.571Z,55.21
2022-09-12T12:55:52.831Z,55.45
2022-09-12T12:58:20.535Z,54.51
2022-09-12T13:01:01.065Z,54.63
2022-09-12T13:03:31.792Z,56.37
2022-09-12T13:06:07.969Z,55.63
2022-09-12T13:08:40.923Z,55.70
2022-09-12T13:11:15.401Z,55.30
2022-09-12T13:13:58.934Z,53.80
2022-09-12T13:16:52.062Z,54.58
2022-09-12T13:19:27.330Z,55.13
2022-09-12T13:22:01.793Z,55.61
2022-09-12T13:24:29.731Z,55.66
2022-09-12T13:26:57.822Z,55.97
2022-09-12T13:29:27.516Z,56.05
2022-09-12T13:31:56.678Z,55.74
2022-09-12T13:34:31.286Z,55.31
2022-09-12T13:37:08.947Z,54.05
2022-09-12T13:39:48.083Z,54.63
2022-09-12T13:42:48.676Z,54.63
2022-09-12T13:45:39.552Z,53.88
2022-09-12T13:48:16.371Z,53.01
2022-09-12T13:50:52.833Z,53.71
2022-09-12T13:53:25.770Z,54.17
2022-09-12T13:55:59.346Z,54.58
2022-09-12T13:58:37.355Z,54.32
2022-09-12T14:01:11.233Z,54.26
2022-09-12T14:04:15.403Z,54.01
2022-09-12T14:06:50.039Z,53.08
2022-09-12T14:09:29.798Z,53.82
2022-09-12T14:11:58.975Z,53.99
2022-09-12T14:14:36.485Z,54.08
2022-09-12T14:17:24.008Z,54.78
2022-09-12T14:19:55.420Z,54.39
2022-09-12T14:22:24.409Z,53.52
2022-09-12T14:24:52.724Z,53.84
2022-09-12T14:27:31.890Z,53.67
2022-09-12T14:30:12.633Z,54.21
2022-09-12T14:32:41.502Z,54.80
2022-09-12T14:35:12.304Z,54.99
2022-09-12T14:37:40.694Z,54.67
2022-09-12T14:40:21.549Z,55.13
2022-09-12T14:42:51.218Z,54.23
2022-09-12T14:45:25.656Z,54.81
2022-09-12T14:47:54.370Z,55.61
2022-09-12T14:50:31.656Z,55.44
2022-09-12T14:53:08.269Z,55.68
2022-09-12T14:55:46.285Z,55.63
2022-09-12T14:58:26.744Z,55.84
2022-09-12T15:01:02.604Z,55.23
2022-09-12T15:03:36.502Z,56.35
2022-09-12T15:06:08.050Z,56.42
2022-09-12T15:08:36.274Z,56.75
2022-09-12T15:11:07.781Z,56.72
2022-09-12T15:13:41.866Z,56.43
2022-09-12T15:16:11.998Z,55.90
2022-09-12T15:18:39.884Z,55.26
2022-09-12T15:21:11.937Z,55.72
2022-09-12T15:23:50.878Z,55.52
2022-09-12T15:26:23.904Z,55.60
2022-09-12T15:28:52.066Z,55.96
2022-09-12T15:31:30.959Z,55.86
2022-09-12T15:34:01.631Z,56.20
2022-09-12T15:36:29.966Z,56.34
2022-09-12T15:38:58.276Z,56.51
2022-09-12T15:41:32.645Z,56.11
2022-09-12T15:44:02.029Z,56.22
2022-09-12T15:46:30.790Z,56.33
2022-09-12T15:48:58.786Z,56.65
2022-09-12T15:51:26.699Z,56.42
2022-09-12T15:53:54.794Z,56.23
2022-09-12T15:56:23.331Z,56.38
2022-09-12T15:58:59.855Z,57.16
2022-09-12T16:01:28.873Z,56.96
2022-09-12T16:03:57.372Z,57.06
2022-09-12T16:06:25.270Z,57.56
2022-09-12T16:08:53.070Z,57.27
2022-09-12T16:11:24.137Z,57.53
2022-09-12T16:13:56.625Z,57.79
2022-09-12T16:16:24.756Z,58.00
2022-09-12T16:18:52.791Z,58.46
2022-09-12T16:21:20.774Z,58.44
2022-09-12T16:23:49.061Z,58.35
2022-09-12T16:26:17.289Z,58.90
2022-09-12T16:28:45.406Z,59.21
2022-09-12T16:31:15.689Z,59.21
2022-09-12T16:33:43.508Z,59.03
2022-09-12T16:36:13.861Z,59.29
2022-09-12T16:38:47.094Z,59.20
2022-09-12T16:41:16.145Z,59.79
2022-09-12T16:43:45.565Z,59.90
2022-09-12T16:46:16.217Z,59.97
2022-09-12T16:48:52.032Z,60.27
2022-09-12T16:51:23.727Z,60.49
2022-09-12T16:53:52.145Z,61.04
2022-09-12T16:56:20.361Z,61.66
2022-09-12T16:58:49.430Z,61.25
2022-09-12T17:01:20.256Z,61.35
2022-09-12T17:03:48.894Z,62.16
2022-09-12T17:06:18.351Z,62.48
2022-09-12T17:08:48.859Z,62.88
2022-09-12T17:11:22.661Z,63.17
2022-09-12T17:14:11.385Z,63.31
2022-09-12T17:16:42.575Z,63.92
2022-09-12T17:19:15.881Z,64.48
2022-09-12T17:21:44.852Z,64.83
2022-09-12T17:24:12.625Z,64.88
2022-09-12T17:26:40.495Z,65.15
2022-09-12T17:29:08.959Z,65.33
2022-09-12T17:31:36.809Z,65.15
2022-09-12T17:34:04.858Z,65.41
2022-09-12T17:36:32.711Z,65.56
2022-09-12T17:39:04.118Z,65.65
2022-09-12T17:41:32.250Z,65.98
2022-09-12T17:44:02.382Z,66.48
2022-09-12T17:46:35.854Z,66.65
2022-09-12T17:49:08.925Z,67.08
2022-09-12T17:51:36.872Z,67.54
2022-09-12T17:54:10.034Z,67.80
2022-09-12T17:56:39.000Z,68.06
2022-09-12T17:59:08.767Z,68.43
2022-09-12T18:01:55.222Z,68.77
2022-09-12T18:04:23.300Z,68.91
2022-09-12T18:06:51.460Z,69.12
2022-09-12T18:09:23.628Z,69.53
2022-09-12T18:11:52.204Z,69.77
2022-09-12T18:14:20.972Z,70.24
2022-09-12T18:16:52.436Z,70.32
2022-09-12T18:19:20.870Z,70.54
2022-09-12T18:21:51.524Z,70.89
2022-09-12T18:24:19.509Z,71.31
2022-09-12T18:26:48.031Z,71.70
2022-09-12T18:29:16.961Z,72.02
2022-09-12T18:31:46.762Z,72.31
2022-09-12T18:34:21.025Z,72.79
2022-09-12T18:36:49.695Z,73.29
2022-09-12T18:39:18.275Z,73.79
2022-09-12T18:41:46.434Z,73.88
2022-09-12T18:44:14.495Z,74.40
2022-09-12T18:46:42.573Z,74.54
2022-09-12T18:49:10.653Z,74.80
2022-09-12T18:51:41.598Z,75.26
2022-09-12T18:54:14.396Z,75.90
2022-09-12T18:56:44.037Z,76.10
2022-09-12T18:59:15.522Z,76.31
2022-09-12T19:01:44.523Z,76.18
2022-09-12T19:04:16.624Z,76.38
2022-09-12T19:06:48.204Z,76.63
2022-09-12T19:09:18.807Z,76.72
2022-09-12T19:11:50.876Z,76.90
2022-09-12T19:14:22.642Z,77.14
2022-09-12T19:16:52.242Z,77.56
2022-09-12T19:19:20.743Z,77.63
2022-09-12T19:21:48.576Z,78.13
2022-09-12T19:24:17.371Z,78.19
2022-09-12T19:26:45.498Z,78.25
2022-09-12T19:29:14.712Z,78.79
2022-09-12T19:31:43.189Z,78.86
2022-09-12T19:34:12.555Z,78.68
2022-09-12T19:36:45.806Z,78.47
2022-09-12T19:39:16.147Z,78.48
2022-09-12T19:41:44.780Z,78.56
2022-09-12T19:44:12.814Z,78.78
2022-09-12T19:46:41.029Z,79.05
2022-09-12T19:49:11.535Z,79.33
2022-09-12T19:51:43.884Z,79.93
2022-09-12T19:54:12.014Z,79.79
2022-09-12T19:56:39.883Z,79.90
2022-09-12T19:59:08.745Z,80.32
2022-09-12T20:01:37.959Z,80.78
2022-09-12T20:04:06.907Z,80.88
2022-09-12T20:06:36.764Z,81.35
2022-09-12T20:09:07.613Z,81.32
2022-09-12T20:11:35.627Z,81.36
2022-09-12T20:14:03.734Z,81.58
2022-09-12T20:16:33.411Z,81.78
2022-09-12T20:19:06.912Z,81.80
2022-09-12T20:21:41.586Z,81.85
2022-09-12T20:24:14.476Z,81.55
2022-09-12T20:26:42.875Z,81.54
2022-09-12T20:29:11.297Z,81.32
2022-09-12T20:31:41.679Z,81.20
2022-09-12T20:34:15.445Z,80.89
2022-09-12T20:36:43.735Z,80.77
2022-09-12T20:39:17.628Z,80.62
2022-09-12T20:41:46.250Z,80.63
2022-09-12T20:44:14.572Z,81.00
2022-09-12T20:46:42.935Z,81.49
2022-09-12T20:49:10.774Z,81.37
2022-09-12T20:51:38.980Z,81.32
2022-09-12T20:54:07.885Z,81.92
2022-09-12T20:56:37.730Z,82.11
2022-09-12T20:59:06.232Z,82.15
2022-09-12T21:01:34.795Z,82.53
2022-09-12T21:04:03.405Z,82.99
2022-09-12T21:06:31.816Z,83.21
2022-09-12T21:09:00.493Z,83.21
2022-09-12T21:11:29.456Z,83.46
2022-09-12T21:13:57.876Z,83.68
2022-09-12T21:16:26.826Z,83.97
2022-09-12T21:18:57.362Z,83.95
2022-09-12T21:21:25.809Z,84.89
2022-09-12T21:23:57.211Z,84.72
2022-09-12T21:26:25.014Z,84.65
2022-09-12T21:28:53.047Z,84.70
2022-09-12T21:31:22.605Z,84.88
2022-09-12T21:33:51.901Z,84.77
2022-09-12T21:36:19.782Z,84.87
2022-09-12T21:38:47.770Z,85.21
2022-09-12T21:41:17.184Z,84.93
2022-09-12T21:43:45.548Z,84.71
2022-09-12T21:46:13.394Z,84.90
2022-09-12T21:48:43.323Z,84.90
2022-09-12T21:51:11.179Z,84.72
2022-09-12T21:53:39.231Z,84.57
2022-09-12T21:56:08.754Z,84.25
2022-09-12T21:58:37.797Z,84.08
2022-09-12T22:01:11.020Z,83.83
2022-09-12T22:03:39.027Z,83.38
2022-09-12T22:06:07.751Z,83.27
2022-09-12T22:08:37.735Z,82.83
2022-09-12T22:11:09.331Z,82.36
2022-09-12T22:13:43.734Z,82.37
2022-09-12T22:16:12.307Z,82.33
2022-09-12T22:18:40.247Z,82.30
2022-09-12T22:21:24.856Z,82.44
2022-09-12T22:24:11.181Z,82.31
2022-09-12T22:26:43.851Z,82.11
2022-09-12T22:29:13.242Z,81.77
2022-09-12T22:31:41.482Z,81.31
2022-09-12T22:34:10.377Z,81.19
2022-09-12T22:36:39.343Z,80.87
2022-09-12T22:39:08.935Z,80.67
2022-09-12T22:41:36.905Z,80.52
2022-09-12T22:44:06.364Z,80.39
2022-09-12T22:46:34.527Z,80.12
2022-09-12T22:49:02.408Z,80.07
2022-09-12T22:51:30.833Z,79.98
2022-09-12T22:53:58.820Z,79.90
2022-09-12T22:56:26.974Z,79.75
2022-09-12T22:58:55.046Z,79.64
2022-09-12T23:01:23.813Z,79.47
2022-09-12T23:03:51.681Z,79.42
2022-09-12T23:06:19.555Z,79.31
2022-09-12T23:08:47.294Z,79.34
2022-09-12T23:11:19.498Z,79.37
2022-09-12T23:13:48.646Z,79.10
2022-09-12T23:16:19.547Z,79.30
2022-09-12T23:18:49.654Z,79.10
2022-09-12T23:21:19.859Z,79.31
2022-09-12T23:23:48.346Z,79.41
2022-09-12T23:26:21.723Z,79.35
2022-09-12T23:28:54.889Z,79.22
2022-09-12T23:31:24.704Z,79.50
2022-09-12T23:33:56.521Z,79.34
2022-09-12T23:36:25.585Z,79.38
2022-09-12T23:38:55.040Z,79.35
2022-09-12T23:41:22.963Z,79.28
2022-09-12T23:43:50.777Z,79.07
2022-09-12T23:46:19.805Z,78.90
2022-09-12T23:48:48.303Z,78.75
2022-09-12T23:51:16.315Z,78.55
2022-09-12T23:53:44.098Z,78.55
2022-09-12T23:56:11.883Z,78.63
2022-09-12T23:58:39.716Z,78.63
